Time;durP1;ratioP1;P1;durP2;ratioP2;P2;SDS_P1;SDS_P2;PMS_P1;PMS_P2;Temp;Humidity;BMP_temperature;BMP_pressure;BME280_temperature;BME280_humidity;BME280_pressure;Samples;Min_cycle;Max_cycle;Signal;HPM_P1;HPM_P2
2024/01/20 00:01:54;;;;;;;5.80;1.35;;;25.90;99.90;;;;;;5076813;28;20673;-76
2024/01/20 00:04:25;;;;;;;4.97;1.48;;;25.90;99.90;;;;;;5090367;28;20223;-76
2024/01/20 00:06:56;;;;;;;6.40;1.25;;;25.90;99.90;;;;;;5087053;28;20235;-76
2024/01/20 00:09:27;;;;;;;5.47;1.33;;;26.00;99.90;;;;;;5089935;28;20197;-76
2024/01/20 00:12:00;;;;;;;4.75;1.15;;;26.10;99.90;;;;;;5076413;28;20222;-76
2024/01/20 00:14:31;;;;;;;6.00;1.20;;;26.20;99.90;;;;;;5078126;28;20207;-76
2024/01/20 00:17:02;;;;;;;8.93;1.55;;;26.20;99.90;;;;;;5086554;28;20277;-76
2024/01/20 00:19:33;;;;;;;5.95;1.60;;;26.10;99.90;;;;;;5090049;28;20199;-77
2024/01/20 00:22:03;;;;;;;3.50;1.38;;;26.10;99.90;;;;;;5059984;28;20339;-76
2024/01/20 00:24:34;;;;;;;8.00;1.55;;;26.10;99.90;;;;;;5045789;28;20230;-76
2024/01/20 00:27:07;;;;;;;5.05;1.30;;;26.10;99.90;;;;;;5045289;28;20208;-77
2024/01/20 00:29:40;;;;;;;5.03;1.42;;;26.10;99.90;;;;;;5054160;28;20225;-76
2024/01/20 00:32:11;;;;;;;4.75;1.40;;;26.10;99.90;;;;;;5070471;28;20195;-77
2024/01/20 00:34:42;;;;;;;7.45;1.60;;;26.20;99.90;;;;;;5075653;28;20205;-76
2024/01/20 00:37:13;;;;;;;6.88;1.42;;;26.20;99.90;;;;;;5088898;28;20210;-77
2024/01/20 00:39:44;;;;;;;6.95;1.35;;;26.30;99.90;;;;;;5089402;28;20574;-77
2024/01/20 00:42:17;;;;;;;7.30;1.42;;;26.30;99.90;;;;;;5079614;28;20201;-78
2024/01/20 00:44:48;;;;;;;4.40;1.17;;;26.30;99.90;;;;;;5065296;28;20216;-76
2024/01/20 00:47:18;;;;;;;5.90;1.52;;;26.40;99.90;;;;;;5069601;28;20206;-77
2024/01/20 00:49:49;;;;;;;9.13;1.38;;;26.50;99.90;;;;;;5083189;28;20221;-78
2024/01/20 00:52:20;;;;;;;7.78;1.55;;;26.60;99.90;;;;;;5094934;28;20196;-77
2024/01/20 00:54:52;;;;;;;5.32;1.27;;;26.50;99.90;;;;;;5082473;28;20204;-77
2024/01/20 00:57:25;;;;;;;4.53;1.40;;;26.50;99.90;;;;;;5061979;28;20190;-77
2024/01/20 00:59:55;;;;;;;7.18;1.55;;;26.50;99.90;;;;;;5073363;28;20196;-77
2024/01/20 01:02:28;;;;;;;5.70;1.30;;;26.50;99.90;;;;;;5057679;28;20665;-77
2024/01/20 01:04:59;;;;;;;4.65;1.40;;;26.50;99.90;;;;;;5052943;28;20234;-77
2024/01/20 01:07:29;;;;;;;6.88;1.60;;;26.40;99.90;;;;;;5053194;28;20410;-77
2024/01/20 01:10:00;;;;;;;7.70;1.25;;;26.40;99.90;;;;;;5053368;28;20204;-77
2024/01/20 01:12:33;;;;;;;8.68;1.67;;;26.30;99.90;;;;;;5072709;28;20210;-77
2024/01/20 01:15:04;;;;;;;8.55;1.77;;;26.40;99.90;;;;;;5071422;28;20275;-77
2024/01/20 01:17:34;;;;;;;7.85;1.42;;;26.40;99.90;;;;;;5072467;28;20204;-77
2024/01/20 01:20:05;;;;;;;5.28;1.38;;;26.40;99.90;;;;;;5053385;28;20557;-78
2024/01/20 01:22:36;;;;;;;4.82;1.40;;;26.40;99.90;;;;;;5053782;28;20201;-77
2024/01/20 01:25:09;;;;;;;6.82;1.52;;;26.40;99.90;;;;;;5052384;28;20228;-77
2024/01/20 01:27:41;;;;;;;6.63;1.45;;;26.30;99.90;;;;;;5058149;28;20261;-77
2024/01/20 01:30:13;;;;;;;7.60;1.60;;;26.10;99.90;;;;;;5072529;28;20228;-79
2024/01/20 01:32:44;;;;;;;6.57;1.52;;;26.10;99.90;;;;;;5072674;28;20663;-77
2024/01/20 01:35:14;;;;;;;6.60;1.63;;;26.10;99.90;;;;;;5070436;28;20697;-77
2024/01/20 01:37:45;;;;;;;5.28;1.23;;;26.20;99.90;;;;;;5072780;28;20192;-78
2024/01/20 01:40:16;;;;;;;4.28;1.10;;;26.30;99.90;;;;;;5052316;28;20605;-77
2024/01/20 01:42:49;;;;;;;7.70;1.40;;;26.30;99.90;;;;;;5071065;28;20250;-77
2024/01/20 01:45:20;;;;;;;7.50;1.40;;;26.30;99.90;;;;;;5081187;28;20245;-77
2024/01/20 01:47:50;;;;;;;7.38;1.23;;;26.40;99.90;;;;;;5092916;28;20192;-77
2024/01/20 01:50:22;;;;;;;3.78;1.13;;;26.40;99.90;;;;;;5077602;28;20193;-78
2024/01/20 01:52:55;;;;;;;4.53;1.33;;;26.40;99.90;;;;;;5054177;28;20236;-77
2024/01/20 01:55:27;;;;;;;7.82;1.40;;;26.30;99.90;;;;;;5051614;28;20207;-77
2024/01/20 01:58:01;;;;;;;4.75;1.45;;;26.20;99.90;;;;;;5087203;28;20199;-78
2024/01/20 02:00:32;;;;;;;7.90;1.20;;;26.10;99.90;;;;;;5071356;28;20226;-76
2024/01/20 02:03:03;;;;;;;6.28;1.40;;;26.00;99.90;;;;;;5067728;28;20614;-76
2024/01/20 02:05:34;;;;;;;5.15;1.00;;;25.90;99.90;;;;;;5076709;28;20223;-77
2024/01/20 02:08:06;;;;;;;6.25;1.35;;;25.80;99.90;;;;;;5070112;28;20224;-77
2024/01/20 02:10:37;;;;;;;3.72;1.20;;;25.90;99.90;;;;;;5052508;28;20219;-77
2024/01/20 02:13:10;;;;;;;6.15;1.35;;;25.90;99.90;;;;;;5059283;28;20278;-77
2024/01/20 02:15:41;;;;;;;3.92;1.27;;;25.90;99.90;;;;;;5068930;28;20264;-76
2024/01/20 02:18:12;;;;;;;5.88;1.40;;;26.10;99.90;;;;;;5053629;28;20262;-77
2024/01/20 02:20:43;;;;;;;7.40;1.33;;;26.20;99.90;;;;;;5051743;28;20211;-76
2024/01/20 02:23:15;;;;;;;5.25;1.25;;;26.30;99.90;;;;;;5051870;28;20700;-76
2024/01/20 02:25:46;;;;;;;5.70;1.20;;;26.40;99.90;;;;;;5051371;28;20224;-77
2024/01/20 02:28:17;;;;;;;6.82;1.48;;;26.40;99.90;;;;;;5058770;28;20192;-76
2024/01/20 02:30:48;;;;;;;6.43;1.35;;;26.50;99.90;;;;;;5071453;28;20196;-76
2024/01/20 02:33:19;;;;;;;5.80;1.30;;;26.40;99.90;;;;;;5071339;28;20210;-76
2024/01/20 02:35:50;;;;;;;4.32;1.20;;;26.50;99.90;;;;;;5071387;28;20336;-77
2024/01/20 02:38:22;;;;;;;6.38;1.20;;;26.70;99.90;;;;;;5071617;28;20196;-77
2024/01/20 02:40:53;;;;;;;4.05;1.20;;;26.60;99.90;;;;;;5071023;28;20658;-77
2024/01/20 02:43:24;;;;;;;6.30;1.55;;;26.60;99.90;;;;;;5064466;28;20208;-77
2024/01/20 02:45:54;;;;;;;6.07;1.30;;;26.50;99.90;;;;;;5051246;28;20737;-77
2024/01/20 02:48:26;;;;;;;5.78;1.40;;;26.50;99.90;;;;;;5052696;28;20634;-77
2024/01/20 02:50:56;;;;;;;6.65;1.60;;;26.50;99.90;;;;;;5074998;28;20198;-77
2024/01/20 02:53:29;;;;;;;7.20;1.52;;;26.50;99.90;;;;;;5091691;28;20199;-77
2024/01/20 02:56:03;;;;;;;9.55;1.67;;;26.40;99.90;;;;;;5091381;28;20195;-76
2024/01/20 02:58:33;;;;;;;5.82;1.63;;;26.50;99.90;;;;;;5089838;28;20210;-76
2024/01/20 03:01:04;;;;;;;7.10;1.38;;;26.60;99.90;;;;;;5051727;28;20207;-76
2024/01/20 03:03:35;;;;;;;7.95;1.17;;;26.60;99.90;;;;;;5059250;28;20283;-76
2024/01/20 03:06:06;;;;;;;3.97;1.05;;;26.60;99.90;;;;;;5073056;28;20768;-77
2024/01/20 03:08:39;;;;;;;6.65;1.42;;;26.60;99.90;;;;;;5063336;28;20287;-77
2024/01/20 03:11:09;;;;;;;5.63;1.33;;;26.70;99.90;;;;;;5064772;28;20203;-77
2024/01/20 03:13:40;;;;;;;3.55;1.10;;;26.70;99.90;;;;;;5060486;28;20250;-77
2024/01/20 03:16:12;;;;;;;5.85;1.60;;;26.70;99.90;;;;;;5064944;28;20555;-78
2024/01/20 03:18:43;;;;;;;5.57;1.25;;;26.70;99.90;;;;;;5070160;28;20196;-77
2024/01/20 03:21:13;;;;;;;6.72;1.48;;;26.80;99.90;;;;;;5070648;28;20200;-78
2024/01/20 03:23:47;;;;;;;7.45;1.38;;;26.70;99.90;;;;;;5070988;28;20208;-77
2024/01/20 03:26:18;;;;;;;4.78;1.35;;;26.80;99.90;;;;;;5070500;28;20228;-78
2024/01/20 03:28:48;;;;;;;5.18;1.63;;;26.90;99.90;;;;;;5057470;28;20200;-78
2024/01/20 03:31:19;;;;;;;5.03;1.38;;;27.00;99.90;;;;;;5050890;28;20203;-76
2024/01/20 03:33:50;;;;;;;6.75;1.38;;;27.00;99.90;;;;;;5073003;28;20199;-76
2024/01/20 03:36:21;;;;;;;4.63;1.40;;;27.00;99.90;;;;;;5081658;28;20254;-77
2024/01/20 03:38:53;;;;;;;4.80;1.35;;;27.10;99.90;;;;;;5061293;28;20230;-78
2024/01/20 03:41:24;;;;;;;7.25;1.42;;;27.10;99.90;;;;;;5070022;28;20569;-77
2024/01/20 03:43:55;;;;;;;3.28;1.20;;;27.10;99.90;;;;;;5064162;28;20196;-77
2024/01/20 03:46:26;;;;;;;9.13;1.30;;;27.00;99.90;;;;;;5070250;28;20255;-78
2024/01/20 03:48:57;;;;;;;3.10;1.17;;;27.20;99.90;;;;;;5069984;28;20196;-78
2024/01/20 03:51:28;;;;;;;6.97;1.30;;;27.30;99.90;;;;;;5058380;28;20204;-78
2024/01/20 03:54:01;;;;;;;5.47;1.30;;;27.40;99.90;;;;;;5050749;28;20207;-78
2024/01/20 03:56:32;;;;;;;3.22;1.17;;;27.40;99.90;;;;;;5049939;28;20192;-78
2024/01/20 03:59:03;;;;;;;5.50;1.60;;;27.40;99.90;;;;;;5050278;28;20574;-77
2024/01/20 04:01:34;;;;;;;5.20;1.40;;;27.40;99.90;;;;;;5072728;28;20214;-77
2024/01/20 04:04:04;;;;;;;4.80;1.27;;;27.30;99.90;;;;;;5090496;28;20286;-77
2024/01/20 04:06:35;;;;;;;4.65;1.17;;;27.30;99.90;;;;;;5090400;28;20239;-77
2024/01/20 04:09:08;;;;;;;4.05;1.20;;;27.40;99.90;;;;;;5067064;28;20231;-77
2024/01/20 04:11:39;;;;;;;4.80;1.20;;;27.50;99.90;;;;;;5062361;28;20203;-77
2024/01/20 04:14:10;;;;;;;5.70;1.30;;;27.50;99.90;;;;;;5074511;28;20279;-77
2024/01/20 04:16:41;;;;;;;5.53;1.38;;;27.50;99.90;;;;;;5067512;28;20673;-77
2024/01/20 04:19:12;;;;;;;4.78;1.10;;;27.40;99.90;;;;;;5070233;28;20203;-77
2024/01/20 04:21:43;;;;;;;10.30;1.60;;;27.60;99.90;;;;;;5069953;28;20200;-78
2024/01/20 04:24:15;;;;;;;4.40;1.20;;;27.70;99.90;;;;;;5077827;28;20191;-78
2024/01/20 04:26:46;;;;;;;3.97;1.20;;;27.80;99.90;;;;;;5056757;28;20226;-78
2024/01/20 04:29:17;;;;;;;6.47;1.13;;;27.80;99.90;;;;;;5067584;28;20194;-79
2024/01/20 04:31:48;;;;;;;3.58;1.23;;;27.60;99.90;;;;;;5068029;28;20205;-79
2024/01/20 04:34:19;;;;;;;6.70;1.30;;;27.50;99.90;;;;;;5071049;28;20223;-79
2024/01/20 04:36:50;;;;;;;6.95;1.33;;;27.40;99.90;;;;;;5084450;28;20217;-78
2024/01/20 04:39:22;;;;;;;6.63;1.48;;;27.50;99.90;;;;;;5060797;28;20196;-78
2024/01/20 04:41:53;;;;;;;4.50;1.10;;;27.60;99.90;;;;;;5074179;28;20212;-78
2024/01/20 04:44:24;;;;;;;6.28;1.40;;;27.60;99.90;;;;;;5064693;28;20189;-79
2024/01/20 04:46:55;;;;;;;4.43;1.30;;;27.60;99.90;;;;;;5067816;28;20693;-79
2024/01/20 04:49:26;;;;;;;4.85;1.23;;;27.60;99.90;;;;;;5094813;28;20201;-78
2024/01/20 04:51:57;;;;;;;4.38;1.40;;;27.70;99.90;;;;;;5094727;28;20190;-78
2024/01/20 04:54:30;;;;;;;5.25;1.23;;;27.80;99.90;;;;;;5084146;28;20665;-78
2024/01/20 04:57:00;;;;;;;6.45;1.13;;;28.00;99.90;;;;;;5093537;28;20200;-76
2024/01/20 04:59:31;;;;;;;7.18;1.55;;;28.20;99.90;;;;;;5073418;28;20201;-77
2024/01/20 05:02:02;;;;;;;4.90;1.33;;;28.30;99.90;;;;;;5053584;28;20552;-77
2024/01/20 05:04:33;;;;;;;6.95;1.30;;;28.40;99.90;;;;;;5082697;28;20207;-76
2024/01/20 05:07:04;;;;;;;6.38;1.52;;;28.40;99.90;;;;;;5085172;28;20756;-77
2024/01/20 05:09:37;;;;;;;7.28;1.65;;;28.20;99.90;;;;;;5053052;28;20705;-76
2024/01/20 05:12:08;;;;;;;4.35;1.23;;;28.00;99.90;;;;;;5087389;28;20199;-77
2024/01/20 05:14:39;;;;;;;6.43;1.30;;;27.80;99.90;;;;;;5090293;28;20203;-76
2024/01/20 05:17:10;;;;;;;3.78;1.25;;;27.70;99.90;;;;;;5073515;28;20651;-77
2024/01/20 05:19:45;;;;;;;5.53;1.05;;;27.70;99.90;;;;;;5093517;28;20202;-76
2024/01/20 05:22:15;;;;;;;4.53;1.27;;;27.70;99.90;;;;;;5077327;28;20270;-77
2024/01/20 05:24:48;;;;;;;7.05;1.40;;;27.70;99.90;;;;;;5067367;28;20200;-76
2024/01/20 05:27:19;;;;;;;7.03;1.30;;;27.80;99.90;;;;;;5077555;28;20454;-77
2024/01/20 05:29:49;;;;;;;5.47;1.58;;;27.90;99.90;;;;;;5064867;28;20212;-77
2024/01/20 05:32:20;;;;;;;9.40;1.40;;;27.90;99.90;;;;;;5073656;28;20213;-77
2024/01/20 05:34:51;;;;;;;6.47;1.65;;;28.00;99.90;;;;;;5054204;28;20196;-77
2024/01/20 05:37:22;;;;;;;7.38;1.48;;;28.00;99.90;;;;;;5053343;28;20224;-77
2024/01/20 05:39:54;;;;;;;7.03;1.35;;;28.10;99.90;;;;;;5053817;28;20204;-76
2024/01/20 05:42:26;;;;;;;6.35;1.20;;;28.30;99.90;;;;;;5055400;28;20283;-77
2024/01/20 05:44:57;;;;;;;3.97;1.45;;;28.50;99.90;;;;;;5063144;28;20204;-76
2024/01/20 05:47:28;;;;;;;4.30;1.23;;;28.60;99.90;;;;;;5066626;28;20239;-76
2024/01/20 05:49:58;;;;;;;5.93;1.63;;;28.40;99.90;;;;;;5071996;28;20188;-75
2024/01/20 05:52:29;;;;;;;8.40;1.98;;;28.20;99.90;;;;;;5078759;28;20206;-76
2024/01/20 05:55:02;;;;;;;7.18;1.42;;;27.90;99.90;;;;;;5089001;28;20199;-76
2024/01/20 05:57:32;;;;;;;5.88;1.20;;;27.70;99.90;;;;;;5086811;28;20211;-75
2024/01/20 06:00:03;;;;;;;8.30;1.75;;;27.50;99.90;;;;;;5092662;28;20199;-78
2024/01/20 06:02:34;;;;;;;4.72;1.25;;;27.40;99.90;;;;;;5064282;28;20201;-77
2024/01/20 06:05:08;;;;;;;5.70;1.38;;;27.20;99.90;;;;;;5051864;28;20200;-76
2024/01/20 06:07:39;;;;;;;6.60;1.50;;;27.20;99.90;;;;;;5052810;28;20324;-76
2024/01/20 06:10:12;;;;;;;7.10;1.50;;;27.10;99.90;;;;;;5080442;28;20192;-77
2024/01/20 06:12:42;;;;;;;9.48;1.50;;;27.20;99.90;;;;;;5060469;28;20200;-77
2024/01/20 06:15:13;;;;;;;6.47;1.48;;;27.40;99.90;;;;;;5072177;28;20647;-77
2024/01/20 06:17:44;;;;;;;6.57;1.60;;;28.00;99.90;;;;;;5070468;28;20206;-77
2024/01/20 06:20:16;;;;;;;8.07;1.65;;;28.20;99.90;;;;;;5066489;28;20197;-76
2024/01/20 06:22:47;;;;;;;7.78;1.70;;;28.00;99.90;;;;;;5062798;28;20223;-76
2024/01/20 06:25:19;;;;;;;8.40;1.60;;;28.30;99.90;;;;;;5063814;28;20222;-77
2024/01/20 06:27:50;;;;;;;6.78;1.42;;;28.20;99.90;;;;;;5061973;28;20231;-76
2024/01/20 06:30:21;;;;;;;6.88;1.92;;;28.20;99.90;;;;;;5071827;28;20677;-77
2024/01/20 06:32:52;;;;;;;7.63;1.33;;;28.00;99.90;;;;;;5053027;28;20203;-76
2024/01/20 06:35:22;;;;;;;6.25;1.17;;;27.80;99.90;;;;;;5070196;28;20204;-77
2024/01/20 06:37:53;;;;;;;6.70;1.60;;;27.60;99.90;;;;;;5051638;28;20220;-77
2024/01/20 06:40:26;;;;;;;8.13;1.70;;;27.50;99.90;;;;;;5063493;28;20199;-77
2024/01/20 06:42:56;;;;;;;6.07;1.67;;;27.40;99.90;;;;;;5052648;28;20201;-77
2024/01/20 06:45:30;;;;;;;6.97;1.60;;;27.30;99.90;;;;;;5088458;28;20240;-77
2024/01/20 06:48:01;;;;;;;8.85;1.70;;;27.20;99.90;;;;;;5092933;28;20314;-78
2024/01/20 06:50:32;;;;;;;4.40;1.13;;;27.30;99.90;;;;;;5089699;28;20195;-78
2024/01/20 06:53:02;;;;;;;6.07;1.55;;;27.60;99.90;;;;;;5068772;28;20195;-78
2024/01/20 06:55:59;;;;;;;5.47;1.35;;;28.00;99.90;;;;;;5092387;28;20199;-78
2024/01/20 06:58:30;;;;;;;6.80;1.70;;;28.70;99.90;;;;;;5086455;28;20191;-77
2024/01/20 07:01:01;;;;;;;6.85;1.45;;;29.20;99.90;;;;;;5082787;28;20202;-77
2024/01/20 07:03:32;;;;;;;4.45;1.30;;;29.80;99.90;;;;;;5078829;28;20206;-78
2024/01/20 07:06:03;;;;;;;6.70;1.23;;;30.30;99.90;;;;;;5087211;28;20204;-78
2024/01/20 07:08:34;;;;;;;5.40;1.45;;;30.90;99.90;;;;;;5092955;28;20202;-78
2024/01/20 07:11:11;;;;;;;5.40;1.50;;;30.50;99.90;;;;;;5059530;28;20274;-77
2024/01/20 07:13:42;;;;;;;5.88;1.58;;;30.20;99.90;;;;;;5090223;28;20195;-78
2024/01/20 07:16:14;;;;;;;4.03;1.38;;;30.10;99.90;;;;;;5064408;28;20288;-77
2024/01/20 07:18:45;;;;;;;4.57;1.15;;;29.90;99.90;;;;;;5052500;28;20192;-78
2024/01/20 07:21:15;;;;;;;5.60;1.33;;;30.50;99.90;;;;;;5052931;28;20199;-78
2024/01/20 07:23:46;;;;;;;7.35;1.50;;;31.00;99.90;;;;;;5075604;28;20195;-77
2024/01/20 07:26:19;;;;;;;5.03;1.15;;;31.00;99.90;;;;;;5076017;28;20200;-78
2024/01/20 07:28:52;;;;;;;7.20;1.38;;;31.00;99.90;;;;;;5050996;28;20196;-78
2024/01/20 07:31:23;;;;;;;7.80;2.15;;;30.90;99.90;;;;;;5051125;28;20208;-78
2024/01/20 07:33:54;;;;;;;6.70;1.73;;;30.80;99.90;;;;;;5050895;28;20215;-78
2024/01/20 07:36:25;;;;;;;6.90;1.60;;;30.70;99.90;;;;;;5050693;28;20189;-78
2024/01/20 07:38:56;;;;;;;7.97;1.52;;;30.70;99.90;;;;;;5050749;28;20197;-79
2024/01/20 07:41:30;;;;;;;4.38;1.60;;;30.40;99.90;;;;;;5054164;28;20203;-78
2024/01/20 07:44:01;;;;;;;7.35;1.60;;;30.70;99.90;;;;;;5060431;28;20196;-79
2024/01/20 07:46:32;;;;;;;5.47;1.40;;;31.20;99.90;;;;;;5051106;28;20301;-79
2024/01/20 07:49:03;;;;;;;5.60;1.40;;;31.70;99.90;;;;;;5064561;28;20226;-79
2024/01/20 07:51:33;;;;;;;3.70;1.20;;;31.30;99.90;;;;;;5051056;28;20204;-78
2024/01/20 07:54:04;;;;;;;4.90;1.17;;;31.30;99.90;;;;;;5050952;28;20667;-79
2024/01/20 07:56:37;;;;;;;4.80;1.25;;;31.60;99.90;;;;;;5049075;28;20202;-79
2024/01/20 07:59:08;;;;;;;5.22;1.40;;;31.60;99.90;;;;;;5059780;28;20253;-78
2024/01/20 08:01:39;;;;;;;5.35;1.42;;;31.60;99.90;;;;;;5058672;28;20203;-77
2024/01/20 08:04:10;;;;;;;6.10;1.73;;;31.70;99.90;;;;;;5066812;28;20188;-77
2024/01/20 08:06:44;;;;;;;7.85;1.30;;;31.60;99.90;;;;;;5087208;28;20712;-77
2024/01/20 08:09:14;;;;;;;6.47;1.40;;;31.20;99.90;;;;;;5073030;28;20650;-78
2024/01/20 08:11:47;;;;;;;7.10;1.20;;;31.00;99.90;;;;;;5056359;28;20239;-78
2024/01/20 08:14:18;;;;;;;5.95;1.50;;;30.60;99.90;;;;;;5052364;28;20199;-79
2024/01/20 08:16:49;;;;;;;9.32;3.20;;;30.00;99.90;;;;;;5069392;28;20422;-78
2024/01/20 08:19:20;;;;;;;35.28;26.27;;;29.60;99.90;;;;;;5050306;28;20235;-77
2024/01/20 08:21:50;;;;;;;15.32;8.63;;;29.20;99.90;;;;;;5050613;28;20520;-77
2024/01/20 08:24:22;;;;;;;5.43;1.75;;;28.70;99.90;;;;;;5057433;28;20222;-77
2024/01/20 08:26:54;;;;;;;6.75;2.25;;;28.30;99.90;;;;;;5060679;28;20303;-79
2024/01/20 08:29:25;;;;;;;5.53;1.67;;;28.10;99.90;;;;;;5065133;28;20228;-78
2024/01/20 08:31:56;;;;;;;6.80;2.67;;;27.80;99.90;;;;;;5053666;28;20203;-78
2024/01/20 08:34:26;;;;;;;4.30;1.65;;;27.60;99.90;;;;;;5069100;28;20654;-78
2024/01/20 08:36:57;;;;;;;5.93;2.10;;;27.50;99.90;;;;;;5051845;28;20223;-78
2024/01/20 08:39:28;;;;;;;5.15;1.75;;;27.30;99.90;;;;;;5051470;28;20657;-78
2024/01/20 08:42:01;;;;;;;12.45;6.20;;;27.20;99.90;;;;;;5053458;28;20193;-78
2024/01/20 08:44:32;;;;;;;16.30;6.65;;;27.10;99.90;;;;;;5057112;28;20196;-79
2024/01/20 08:47:03;;;;;;;10.85;6.47;;;27.00;99.90;;;;;;5070713;28;20231;-78
2024/01/20 08:49:32;;;;;;;7.57;3.70;;;26.90;99.90;;;;;;5070749;28;20213;-78
2024/01/20 08:52:03;;;;;;;9.38;4.75;;;26.80;99.90;;;;;;5056266;28;20204;-78
2024/01/20 08:54:34;;;;;;;11.13;4.03;;;26.70;99.90;;;;;;5050407;28;20304;-79
2024/01/20 08:57:07;;;;;;;7.95;2.20;;;26.70;99.90;;;;;;5050462;28;20256;-79
2024/01/20 08:59:37;;;;;;;9.95;3.60;;;26.70;99.90;;;;;;5050248;28;20219;-79
2024/01/20 09:02:09;;;;;;;7.85;2.35;;;26.60;99.90;;;;;;5057991;28;20197;-80
2024/01/20 09:04:39;;;;;;;6.57;2.80;;;26.60;99.90;;;;;;5050466;28;20193;-79
2024/01/20 09:07:10;;;;;;;11.70;5.03;;;26.60;99.90;;;;;;5066499;28;20257;-79
2024/01/20 09:09:41;;;;;;;9.50;5.60;;;26.50;99.90;;;;;;5093043;28;20197;-78
2024/01/20 09:12:15;;;;;;;8.05;2.92;;;26.50;99.90;;;;;;5091156;28;20374;-78
2024/01/20 09:14:46;;;;;;;7.88;4.18;;;26.40;99.90;;;;;;5072706;28;20205;-78
2024/01/20 09:17:16;;;;;;;9.07;4.28;;;26.30;99.90;;;;;;5071888;28;20219;-79
2024/01/20 09:19:47;;;;;;;7.40;2.70;;;26.30;99.90;;;;;;5091806;28;20199;-78
2024/01/20 09:22:19;;;;;;;18.40;11.50;;;26.20;99.90;;;;;;5086365;28;20243;-79
2024/01/20 09:24:50;;;;;;;14.38;7.82;;;26.30;99.90;;;;;;5066169;28;20701;-79
2024/01/20 09:27:23;;;;;;;14.00;9.02;;;26.20;99.90;;;;;;5086021;28;20268;-80
2024/01/20 09:29:53;;;;;;;7.40;3.92;;;26.20;99.90;;;;;;5091946;28;20198;-79
2024/01/20 09:32:25;;;;;;;15.65;8.75;;;26.20;99.90;;;;;;5063162;28;20207;-79
2024/01/20 09:34:56;;;;;;;16.42;8.52;;;26.20;99.90;;;;;;5053542;28;20251;-79
2024/01/20 09:37:28;;;;;;;10.57;5.47;;;26.20;99.90;;;;;;5082872;28;20311;-78
2024/01/20 09:40:00;;;;;;;9.10;3.75;;;26.10;99.90;;;;;;5053638;28;20197;-80
2024/01/20 09:42:33;;;;;;;8.90;3.50;;;26.10;99.90;;;;;;5061880;28;20201;-79
2024/01/20 09:45:04;;;;;;;10.13;2.78;;;26.00;99.90;;;;;;5092244;28;20195;-79
2024/01/20 09:47:37;;;;;;;5.82;1.98;;;25.90;99.90;;;;;;5099777;28;20303;-79
2024/01/20 09:50:09;;;;;;;8.60;2.05;;;25.90;99.90;;;;;;5069168;28;20180;-80
2024/01/20 09:52:51;;;;;;;6.47;1.67;;;25.90;99.90;;;;;;5090479;28;20195;-78
2024/01/20 09:55:23;;;;;;;9.05;1.75;;;25.90;99.90;;;;;;5069890;28;20290;-78
2024/01/20 09:57:58;;;;;;;10.70;1.80;;;25.90;99.90;;;;;;5052720;28;20255;-79
2024/01/20 10:00:29;;;;;;;6.82;2.30;;;25.80;99.90;;;;;;5052948;28;20196;-79
2024/01/20 10:03:03;;;;;;;7.88;1.95;;;25.90;99.90;;;;;;5063812;28;20195;-79
2024/01/20 10:05:38;;;;;;;8.40;1.80;;;25.90;99.90;;;;;;5076061;28;20399;-80
2024/01/20 10:08:09;;;;;;;7.50;1.80;;;25.90;99.90;;;;;;5066821;28;20591;-79
2024/01/20 10:10:40;;;;;;;5.57;1.60;;;25.90;99.90;;;;;;5064051;28;20222;-78
2024/01/20 10:13:12;;;;;;;9.43;1.75;;;25.90;99.90;;;;;;5052929;28;20726;-80
2024/01/20 10:15:43;;;;;;;8.82;1.83;;;25.90;99.90;;;;;;5062752;28;20245;-78
2024/01/20 10:18:14;;;;;;;7.88;1.60;;;25.90;99.90;;;;;;5073060;28;20658;-78
2024/01/20 10:20:45;;;;;;;8.80;1.80;;;25.90;99.90;;;;;;5058464;28;20224;-78
2024/01/20 10:23:16;;;;;;;10.25;1.85;;;25.80;99.90;;;;;;5053237;28;20200;-79
2024/01/20 10:25:47;;;;;;;7.63;1.67;;;25.80;99.90;;;;;;5051657;28;20199;-78
2024/01/20 10:28:20;;;;;;;10.73;2.00;;;25.90;99.90;;;;;;5052869;28;20769;-79
2024/01/20 10:30:50;;;;;;;8.52;1.58;;;25.90;99.90;;;;;;5052331;28;20200;-77
2024/01/20 10:33:22;;;;;;;7.00;1.65;;;25.90;99.90;;;;;;5082174;28;20665;-78
2024/01/20 10:35:53;;;;;;;5.57;1.58;;;25.90;99.90;;;;;;5082761;28;20192;-78
2024/01/20 10:38:24;;;;;;;6.53;1.80;;;25.90;99.90;;;;;;5064149;28;20299;-78
2024/01/20 10:40:57;;;;;;;7.47;1.70;;;25.90;99.90;;;;;;5086278;28;20254;-78
2024/01/20 10:43:37;;;;;;;5.38;1.50;;;25.80;99.90;;;;;;5090004;28;20224;-78
2024/01/20 10:46:16;;;;;;;10.18;1.90;;;25.80;99.90;;;;;;5091960;28;20203;-78
2024/01/20 10:48:54;;;;;;;7.38;1.80;;;25.80;99.90;;;;;;5079910;28;20227;-78
2024/01/20 10:51:29;;;;;;;10.35;1.65;;;25.90;99.90;;;;;;5080768;28;20195;-78
2024/01/20 10:54:06;;;;;;;6.05;1.63;;;25.80;99.90;;;;;;5076160;28;20595;-78
2024/01/20 10:56:37;;;;;;;5.78;1.65;;;25.80;99.90;;;;;;5070434;28;20242;-78
2024/01/20 10:59:14;;;;;;;5.93;1.63;;;25.80;99.90;;;;;;5067277;28;20236;-77
2024/01/20 11:01:45;;;;;;;9.32;1.52;;;25.80;99.90;;;;;;5069939;28;20200;-78
2024/01/20 11:04:22;;;;;;;8.35;1.45;;;25.80;99.90;;;;;;5069484;28;20192;-76
2024/01/20 11:06:54;;;;;;;5.57;1.50;;;25.80;99.90;;;;;;5072468;28;20241;-77
2024/01/20 11:09:25;;;;;;;6.03;1.60;;;25.90;99.90;;;;;;5070197;28;20226;-76
2024/01/20 11:12:06;;;;;;;9.30;1.95;;;25.80;99.90;;;;;;5066178;28;20196;-77
2024/01/20 11:14:41;;;;;;;8.30;1.60;;;25.80;99.90;;;;;;5068396;28;22362;-76
2024/01/20 11:17:16;;;;;;;6.43;1.58;;;25.80;99.90;;;;;;5078007;28;20191;-77
2024/01/20 11:19:47;;;;;;;6.22;1.60;;;25.80;99.90;;;;;;5091486;28;20205;-76
2024/01/20 11:22:34;;;;;;;7.45;2.00;;;25.80;99.90;;;;;;5091458;28;20191;-77
2024/01/20 11:25:07;;;;;;;7.78;1.50;;;25.80;99.90;;;;;;5088926;28;20195;-77
2024/01/20 11:27:48;;;;;;;7.93;1.38;;;25.80;99.90;;;;;;5070887;28;20201;-78
2024/01/20 11:30:28;;;;;;;5.35;1.40;;;25.80;99.90;;;;;;5072760;28;20562;-78
2024/01/20 11:32:59;;;;;;;7.70;1.40;;;25.80;99.90;;;;;;5085526;28;20570;-78
2024/01/20 11:35:30;;;;;;;8.20;1.70;;;25.70;99.90;;;;;;5067670;28;20559;-78
2024/01/20 11:38:01;;;;;;;10.63;2.00;;;25.70;99.90;;;;;;5074004;28;20303;-77
2024/01/20 11:40:32;;;;;;;6.57;1.55;;;25.60;99.90;;;;;;5072077;28;20716;-77
2024/01/20 11:43:09;;;;;;;4.40;1.52;;;25.60;99.90;;;;;;5087233;28;20681;-77
2024/01/20 11:45:42;;;;;;;7.85;1.85;;;25.60;99.90;;;;;;5059337;28;20198;-77
2024/01/20 11:48:15;;;;;;;5.07;1.50;;;25.60;99.90;;;;;;5070307;28;20792;-75
2024/01/20 11:50:46;;;;;;;8.70;1.60;;;25.60;99.90;;;;;;5055572;28;20673;-77
2024/01/20 11:53:17;;;;;;;6.72;1.60;;;25.70;99.90;;;;;;5050331;28;20201;-78
2024/01/20 11:55:58;;;;;;;5.72;1.45;;;25.70;99.90;;;;;;5049688;28;20575;-77
2024/01/20 11:58:30;;;;;;;7.90;1.50;;;25.60;99.90;;;;;;5058296;28;20197;-77
2024/01/20 12:01:03;;;;;;;5.53;1.60;;;25.70;99.90;;;;;;5049606;28;20673;-76
2024/01/20 12:03:34;;;;;;;4.97;1.30;;;25.70;99.90;;;;;;5054627;28;20192;-76
2024/01/20 12:06:08;;;;;;;7.35;1.90;;;25.60;99.90;;;;;;5050972;28;20181;-76
2024/01/20 12:08:40;;;;;;;8.00;1.83;;;25.60;99.90;;;;;;5050607;28;20230;-76
2024/01/20 12:11:18;;;;;;;7.32;1.50;;;25.70;99.90;;;;;;5050622;28;20196;-76
2024/01/20 12:13:49;;;;;;;8.20;2.17;;;25.60;99.90;;;;;;5054546;28;20207;-76
2024/01/20 12:16:22;;;;;;;5.78;1.52;;;25.70;99.90;;;;;;5049707;28;20712;-76
2024/01/20 12:18:53;;;;;;;9.77;2.03;;;25.60;99.90;;;;;;5053082;28;20198;-76
2024/01/20 12:21:25;;;;;;;8.00;1.70;;;25.60;99.90;;;;;;5066267;28;20274;-76
2024/01/20 12:23:56;;;;;;;7.55;1.83;;;25.60;99.90;;;;;;5072159;28;20195;-76
2024/01/20 12:26:27;;;;;;;5.68;1.50;;;25.60;99.90;;;;;;5064692;28;20193;-76
2024/01/20 12:28:58;;;;;;;8.93;1.70;;;25.50;99.90;;;;;;5061420;28;20759;-77
2024/01/20 12:31:30;;;;;;;6.63;1.55;;;25.50;99.90;;;;;;5082210;28;20210;-77
2024/01/20 12:34:01;;;;;;;6.05;1.90;;;25.50;99.90;;;;;;5074572;28;20198;-76
2024/01/20 12:36:33;;;;;;;7.88;1.70;;;25.50;99.90;;;;;;5053472;28;20192;-76
2024/01/20 12:39:05;;;;;;;5.97;1.40;;;25.50;99.90;;;;;;5058343;28;20196;-77
2024/01/20 12:41:36;;;;;;;5.55;1.27;;;25.50;99.90;;;;;;5074368;28;20242;-76
2024/01/20 12:44:07;;;;;;;7.10;1.52;;;25.60;99.90;;;;;;5076272;28;20250;-77
2024/01/20 12:46:40;;;;;;;7.85;1.50;;;25.50;99.90;;;;;;5088291;28;20719;-76
2024/01/20 12:49:11;;;;;;;5.32;1.52;;;25.50;99.90;;;;;;5084461;28;20276;-77
2024/01/20 12:51:43;;;;;;;7.05;1.52;;;25.50;99.90;;;;;;5075429;28;20268;-76
2024/01/20 12:54:14;;;;;;;7.50;1.90;;;25.50;99.90;;;;;;5067884;28;20239;-77
2024/01/20 12:56:48;;;;;;;6.40;1.65;;;25.50;99.90;;;;;;5064054;28;20200;-76
2024/01/20 12:59:19;;;;;;;5.45;1.45;;;25.40;99.90;;;;;;5060072;28;20582;-74
2024/01/20 13:01:51;;;;;;;6.05;1.50;;;25.40;99.90;;;;;;5065137;28;20195;-77
2024/01/20 13:04:22;;;;;;;10.30;1.85;;;25.30;99.90;;;;;;5092275;28;20195;-76
2024/01/20 13:06:53;;;;;;;6.45;1.40;;;25.30;99.90;;;;;;5082305;28;20245;-76
2024/01/20 13:09:24;;;;;;;8.85;1.50;;;25.30;99.90;;;;;;5088619;28;20260;-77